sensor_id;sensor_type;location;lat;lon;timestamp;P1;durP1;ratioP1;P2;durP2;ratioP2
70725;SDS011;58304;53.104;6.022;2022-09-09T00:01:10;9.13;;;5.20;;
70725;SDS011;58304;53.104;6.022;2022-09-09T00:04:15;8.90;;;5.63;;
70725;SDS011;58304;53.104;6.022;2022-09-09T00:07:18;9.13;;;5.38;;
70725;SDS011;58304;53.104;6.022;2022-09-09T00:15:12;10.35;;;5.38;;
70725;SDS011;58304;53.104;6.022;2022-09-09T00:17:43;10.02;;;5.20;;
70725;SDS011;58304;53.104;6.022;2022-09-09T00:20:28;8.75;;;5.20;;
70725;SDS011;58304;53.104;6.022;2022-09-09T00:25:54;9.10;;;4.72;;
70725;SDS011;58304;53.104;6.022;2022-09-09T00:28:48;10.50;;;5.25;;
70725;SDS011;58304;53.104;6.022;2022-09-09T00:31:25;11.10;;;5.38;;
70725;SDS011;58304;53.104;6.022;2022-09-09T00:33:53;8.20;;;4.80;;
70725;SDS011;58304;53.104;6.022;2022-09-09T00:36:24;9.80;;;5.20;;
70725;SDS011;58304;53.104;6.022;2022-09-09T00:38:59;9.27;;;5.20;;
70725;SDS011;58304;53.104;6.022;2022-09-09T00:41:42;7.32;;;4.68;;
70725;SDS011;58304;53.104;6.022;2022-09-09T00:44:43;9.18;;;5.20;;
70725;SDS011;58304;53.104;6.022;2022-09-09T00:47:39;9.65;;;4.45;;
70725;SDS011;58304;53.104;6.022;2022-09-09T00:53:08;8.52;;;4.82;;
70725;SDS011;58304;53.104;6.022;2022-09-09T00:56:09;6.93;;;4.70;;
70725;SDS011;58304;53.104;6.022;2022-09-09T00:58:47;10.80;;;5.20;;
70725;SDS011;58304;53.104;6.022;2022-09-09T01:01:25;8.82;;;5.18;;
70725;SDS011;58304;53.104;6.022;2022-09-09T01:03:54;10.43;;;5.00;;
70725;SDS011;58304;53.104;6.022;2022-09-09T01:06:22;7.60;;;4.50;;
70725;SDS011;58304;53.104;6.022;2022-09-09T01:11:33;8.57;;;4.93;;
70725;SDS011;58304;53.104;6.022;2022-09-09T01:17:03;8.52;;;4.47;;
70725;SDS011;58304;53.104;6.022;2022-09-09T01:27:38;9.18;;;4.55;;
70725;SDS011;58304;53.104;6.022;2022-09-09T01:30:09;7.07;;;4.32;;
70725;SDS011;58304;53.104;6.022;2022-09-09T01:32:42;9.00;;;4.95;;
70725;SDS011;58304;53.104;6.022;2022-09-09T01:35:09;8.32;;;4.60;;
70725;SDS011;58304;53.104;6.022;2022-09-09T01:38:04;8.73;;;4.80;;
70725;SDS011;58304;53.104;6.022;2022-09-09T01:40:30;8.75;;;4.82;;
70725;SDS011;58304;53.104;6.022;2022-09-09T01:42:57;6.68;;;4.68;;
70725;SDS011;58304;53.104;6.022;2022-09-09T01:45:23;9.68;;;4.93;;
70725;SDS011;58304;53.104;6.022;2022-09-09T01:47:49;8.20;;;4.47;;
70725;SDS011;58304;53.104;6.022;2022-09-09T01:53:39;8.32;;;4.63;;
70725;SDS011;58304;53.104;6.022;2022-09-09T01:56:42;7.57;;;4.72;;
70725;SDS011;58304;53.104;6.022;2022-09-09T02:07:14;7.82;;;4.13;;
70725;SDS011;58304;53.104;6.022;2022-09-09T02:10:09;8.10;;;4.25;;
70725;SDS011;58304;53.104;6.022;2022-09-09T02:12:36;9.02;;;4.00;;
70725;SDS011;58304;53.104;6.022;2022-09-09T02:15:07;6.80;;;4.43;;
70725;SDS011;58304;53.104;6.022;2022-09-09T02:17:41;7.20;;;4.70;;
70725;SDS011;58304;53.104;6.022;2022-09-09T02:22:53;6.65;;;4.43;;
70725;SDS011;58304;53.104;6.022;2022-09-09T02:25:22;8.10;;;5.07;;
70725;SDS011;58304;53.104;6.022;2022-09-09T02:27:51;9.60;;;4.78;;
70725;SDS011;58304;53.104;6.022;2022-09-09T02:30:17;8.15;;;4.72;;
70725;SDS011;58304;53.104;6.022;2022-09-09T02:32:45;9.15;;;5.03;;
70725;SDS011;58304;53.104;6.022;2022-09-09T02:35:15;8.82;;;4.88;;
70725;SDS011;58304;53.104;6.022;2022-09-09T02:37:45;9.90;;;4.80;;
70725;SDS011;58304;53.104;6.022;2022-09-09T02:40:12;7.78;;;5.00;;
70725;SDS011;58304;53.104;6.022;2022-09-09T02:42:44;10.60;;;5.97;;
70725;SDS011;58304;53.104;6.022;2022-09-09T02:45:16;8.63;;;5.45;;
70725;SDS011;58304;53.104;6.022;2022-09-09T02:48:03;9.98;;;5.60;;
70725;SDS011;58304;53.104;6.022;2022-09-09T02:51:00;8.52;;;5.40;;
70725;SDS011;58304;53.104;6.022;2022-09-09T02:53:44;9.40;;;5.45;;
70725;SDS011;58304;53.104;6.022;2022-09-09T02:56:24;10.68;;;5.28;;
70725;SDS011;58304;53.104;6.022;2022-09-09T02:59:02;12.27;;;5.18;;
70725;SDS011;58304;53.104;6.022;2022-09-09T03:01:29;11.80;;;5.35;;
70725;SDS011;58304;53.104;6.022;2022-09-09T03:03:55;13.00;;;5.47;;
70725;SDS011;58304;53.104;6.022;2022-09-09T03:06:21;12.55;;;6.00;;
70725;SDS011;58304;53.104;6.022;2022-09-09T03:08:46;11.73;;;5.50;;
70725;SDS011;58304;53.104;6.022;2022-09-09T03:11:22;10.43;;;5.57;;
70725;SDS011;58304;53.104;6.022;2022-09-09T03:13:50;13.10;;;5.72;;
70725;SDS011;58304;53.104;6.022;2022-09-09T03:16:20;9.55;;;6.22;;
70725;SDS011;58304;53.104;6.022;2022-09-09T03:18:49;10.57;;;5.70;;
70725;SDS011;58304;53.104;6.022;2022-09-09T03:21:20;10.43;;;5.43;;
70725;SDS011;58304;53.104;6.022;2022-09-09T03:23:46;11.07;;;6.00;;
70725;SDS011;58304;53.104;6.022;2022-09-09T03:26:14;12.38;;;5.80;;
70725;SDS011;58304;53.104;6.022;2022-09-09T03:28:43;10.20;;;5.45;;
70725;SDS011;58304;53.104;6.022;2022-09-09T03:31:15;8.57;;;5.28;;
70725;SDS011;58304;53.104;6.022;2022-09-09T03:33:44;11.82;;;5.45;;
70725;SDS011;58304;53.104;6.022;2022-09-09T03:36:22;12.90;;;5.65;;
70725;SDS011;58304;53.104;6.022;2022-09-09T03:39:02;8.75;;;5.00;;
70725;SDS011;58304;53.104;6.022;2022-09-09T03:41:30;11.30;;;5.90;;
70725;SDS011;58304;53.104;6.022;2022-09-09T03:43:58;9.35;;;5.05;;
70725;SDS011;58304;53.104;6.022;2022-09-09T03:46:33;10.13;;;5.43;;
70725;SDS011;58304;53.104;6.022;2022-09-09T03:49:03;11.52;;;5.05;;
70725;SDS011;58304;53.104;6.022;2022-09-09T03:51:34;11.25;;;5.30;;
70725;SDS011;58304;53.104;6.022;2022-09-09T03:54:04;9.10;;;5.22;;
70725;SDS011;58304;53.104;6.022;2022-09-09T03:56:33;9.77;;;5.13;;
70725;SDS011;58304;53.104;6.022;2022-09-09T03:59:04;8.88;;;5.15;;
70725;SDS011;58304;53.104;6.022;2022-09-09T04:01:32;11.88;;;5.38;;
70725;SDS011;58304;53.104;6.022;2022-09-09T04:04:00;8.63;;;5.18;;
70725;SDS011;58304;53.104;6.022;2022-09-09T04:06:29;10.35;;;5.40;;
70725;SDS011;58304;53.104;6.022;2022-09-09T04:08:57;10.73;;;5.53;;
70725;SDS011;58304;53.104;6.022;2022-09-09T04:11:27;11.63;;;6.07;;
70725;SDS011;58304;53.104;6.022;2022-09-09T04:13:53;10.27;;;5.78;;
70725;SDS011;58304;53.104;6.022;2022-09-09T04:16:19;11.05;;;6.07;;
70725;SDS011;58304;53.104;6.022;2022-09-09T04:18:45;10.23;;;6.03;;
70725;SDS011;58304;53.104;6.022;2022-09-09T04:21:18;14.52;;;5.78;;
70725;SDS011;58304;53.104;6.022;2022-09-09T04:23:44;14.45;;;6.55;;
70725;SDS011;58304;53.104;6.022;2022-09-09T04:26:16;10.30;;;5.70;;
70725;SDS011;58304;53.104;6.022;2022-09-09T04:28:42;9.70;;;6.03;;
70725;SDS011;58304;53.104;6.022;2022-09-09T04:31:09;11.63;;;5.60;;
70725;SDS011;58304;53.104;6.022;2022-09-09T04:33:43;9.13;;;5.13;;
70725;SDS011;58304;53.104;6.022;2022-09-09T04:36:12;13.88;;;5.38;;
70725;SDS011;58304;53.104;6.022;2022-09-09T04:38:38;8.45;;;5.13;;
70725;SDS011;58304;53.104;6.022;2022-09-09T04:41:04;13.32;;;5.45;;
70725;SDS011;58304;53.104;6.022;2022-09-09T04:43:36;11.82;;;5.72;;
70725;SDS011;58304;53.104;6.022;2022-09-09T04:46:03;9.77;;;5.40;;
70725;SDS011;58304;53.104;6.022;2022-09-09T04:48:30;10.77;;;5.35;;
70725;SDS011;58304;53.104;6.022;2022-09-09T04:51:00;8.57;;;4.75;;
70725;SDS011;58304;53.104;6.022;2022-09-09T04:53:34;8.43;;;4.90;;
70725;SDS011;58304;53.104;6.022;2022-09-09T04:58:30;11.88;;;4.85;;
70725;SDS011;58304;53.104;6.022;2022-09-09T05:01:11;8.45;;;4.95;;
70725;SDS011;58304;53.104;6.022;2022-09-09T05:06:10;12.35;;;5.38;;
70725;SDS011;58304;53.104;6.022;2022-09-09T05:08:41;12.93;;;5.38;;
70725;SDS011;58304;53.104;6.022;2022-09-09T05:13:51;11.70;;;5.80;;
70725;SDS011;58304;53.104;6.022;2022-09-09T05:16:21;8.93;;;5.57;;
70725;SDS011;58304;53.104;6.022;2022-09-09T05:18:48;8.13;;;5.30;;
70725;SDS011;58304;53.104;6.022;2022-09-09T05:21:16;10.50;;;5.90;;
70725;SDS011;58304;53.104;6.022;2022-09-09T05:23:42;9.15;;;6.18;;
70725;SDS011;58304;53.104;6.022;2022-09-09T05:26:16;11.50;;;6.00;;
70725;SDS011;58304;53.104;6.022;2022-09-09T05:28:46;12.07;;;6.25;;
70725;SDS011;58304;53.104;6.022;2022-09-09T05:31:12;10.57;;;6.05;;
70725;SDS011;58304;53.104;6.022;2022-09-09T05:36:35;12.52;;;6.82;;
70725;SDS011;58304;53.104;6.022;2022-09-09T05:39:00;11.52;;;6.93;;
70725;SDS011;58304;53.104;6.022;2022-09-09T05:41:28;13.88;;;6.25;;
70725;SDS011;58304;53.104;6.022;2022-09-09T05:43:56;10.13;;;6.70;;
70725;SDS011;58304;53.104;6.022;2022-09-09T05:46:26;11.45;;;6.53;;
70725;SDS011;58304;53.104;6.022;2022-09-09T05:48:53;11.88;;;6.57;;
70725;SDS011;58304;53.104;6.022;2022-09-09T05:51:22;13.43;;;6.90;;
70725;SDS011;58304;53.104;6.022;2022-09-09T05:53:49;12.13;;;6.53;;
70725;SDS011;58304;53.104;6.022;2022-09-09T05:56:17;10.32;;;6.63;;
70725;SDS011;58304;53.104;6.022;2022-09-09T05:58:44;11.98;;;6.97;;
70725;SDS011;58304;53.104;6.022;2022-09-09T06:01:13;11.82;;;6.25;;
70725;SDS011;58304;53.104;6.022;2022-09-09T06:03:40;11.05;;;6.78;;
70725;SDS011;58304;53.104;6.022;2022-09-09T06:06:09;10.25;;;6.20;;
70725;SDS011;58304;53.104;6.022;2022-09-09T06:08:39;11.90;;;6.78;;
70725;SDS011;58304;53.104;6.022;2022-09-09T06:13:42;11.73;;;6.03;;
70725;SDS011;58304;53.104;6.022;2022-09-09T06:16:09;9.35;;;5.45;;
70725;SDS011;58304;53.104;6.022;2022-09-09T06:18:36;9.38;;;5.88;;
70725;SDS011;58304;53.104;6.022;2022-09-09T06:21:14;9.45;;;5.85;;
70725;SDS011;58304;53.104;6.022;2022-09-09T06:23:41;11.13;;;6.22;;
70725;SDS011;58304;53.104;6.022;2022-09-09T06:26:09;10.43;;;5.82;;
70725;SDS011;58304;53.104;6.022;2022-09-09T06:28:37;11.63;;;6.10;;
70725;SDS011;58304;53.104;6.022;2022-09-09T06:31:07;11.00;;;5.97;;
70725;SDS011;58304;53.104;6.022;2022-09-09T06:33:38;13.50;;;6.38;;
70725;SDS011;58304;53.104;6.022;2022-09-09T06:36:42;10.70;;;6.60;;
70725;SDS011;58304;53.104;6.022;2022-09-09T06:39:11;9.88;;;5.85;;
70725;SDS011;58304;53.104;6.022;2022-09-09T06:41:44;14.32;;;6.93;;
70725;SDS011;58304;53.104;6.022;2022-09-09T06:44:09;9.57;;;5.88;;
70725;SDS011;58304;53.104;6.022;2022-09-09T06:46:38;11.68;;;6.50;;
70725;SDS011;58304;53.104;6.022;2022-09-09T06:49:04;10.55;;;6.18;;
70725;SDS011;58304;53.104;6.022;2022-09-09T06:51:34;10.63;;;6.43;;
70725;SDS011;58304;53.104;6.022;2022-09-09T06:54:01;12.65;;;6.28;;
70725;SDS011;58304;53.104;6.022;2022-09-09T06:59:11;10.07;;;6.35;;
70725;SDS011;58304;53.104;6.022;2022-09-09T07:01:38;10.77;;;5.90;;
70725;SDS011;58304;53.104;6.022;2022-09-09T07:04:10;14.52;;;5.97;;
70725;SDS011;58304;53.104;6.022;2022-09-09T07:06:40;12.40;;;6.40;;
70725;SDS011;58304;53.104;6.022;2022-09-09T07:09:32;10.43;;;5.80;;
70725;SDS011;58304;53.104;6.022;2022-09-09T07:12:21;10.93;;;5.82;;
70725;SDS011;58304;53.104;6.022;2022-09-09T07:15:00;9.95;;;6.00;;
70725;SDS011;58304;53.104;6.022;2022-09-09T07:17:26;11.80;;;6.35;;
70725;SDS011;58304;53.104;6.022;2022-09-09T07:19:54;11.00;;;5.90;;
70725;SDS011;58304;53.104;6.022;2022-09-09T07:22:22;8.32;;;5.10;;
70725;SDS011;58304;53.104;6.022;2022-09-09T07:24:48;9.95;;;5.00;;
70725;SDS011;58304;53.104;6.022;2022-09-09T07:27:14;7.82;;;5.35;;
70725;SDS011;58304;53.104;6.022;2022-09-09T07:29:40;10.20;;;4.90;;
70725;SDS011;58304;53.104;6.022;2022-09-09T07:37:19;7.82;;;4.43;;
70725;SDS011;58304;53.104;6.022;2022-09-09T07:39:44;8.18;;;4.53;;
70725;SDS011;58304;53.104;6.022;2022-09-09T07:42:10;5.82;;;3.88;;
70725;SDS011;58304;53.104;6.022;2022-09-09T07:44:36;7.10;;;4.10;;
70725;SDS011;58304;53.104;6.022;2022-09-09T07:47:04;6.95;;;3.83;;
70725;SDS011;58304;53.104;6.022;2022-09-09T07:49:30;5.82;;;3.97;;
70725;SDS011;58304;53.104;6.022;2022-09-09T07:51:56;8.10;;;3.47;;
70725;SDS011;58304;53.104;6.022;2022-09-09T07:54:22;7.95;;;3.45;;
70725;SDS011;58304;53.104;6.022;2022-09-09T07:56:48;7.38;;;3.80;;
70725;SDS011;58304;53.104;6.022;2022-09-09T07:59:14;5.20;;;2.95;;
70725;SDS011;58304;53.104;6.022;2022-09-09T08:01:42;7.53;;;3.63;;
70725;SDS011;58304;53.104;6.022;2022-09-09T08:04:11;5.60;;;3.28;;
70725;SDS011;58304;53.104;6.022;2022-09-09T08:06:43;5.57;;;2.78;;
70725;SDS011;58304;53.104;6.022;2022-09-09T08:09:11;7.43;;;3.13;;
70725;SDS011;58304;53.104;6.022;2022-09-09T08:11:37;5.65;;;3.10;;
70725;SDS011;58304;53.104;6.022;2022-09-09T08:14:04;4.93;;;2.72;;
70725;SDS011;58304;53.104;6.022;2022-09-09T08:16:32;5.82;;;2.88;;
70725;SDS011;58304;53.104;6.022;2022-09-09T08:19:02;6.68;;;2.60;;
70725;SDS011;58304;53.104;6.022;2022-09-09T08:21:29;8.98;;;2.95;;
70725;SDS011;58304;53.104;6.022;2022-09-09T08:23:57;4.90;;;2.33;;
70725;SDS011;58304;53.104;6.022;2022-09-09T08:29:00;7.38;;;2.80;;
70725;SDS011;58304;53.104;6.022;2022-09-09T08:31:29;9.32;;;3.35;;
70725;SDS011;58304;53.104;6.022;2022-09-09T08:34:04;6.32;;;2.70;;
70725;SDS011;58304;53.104;6.022;2022-09-09T08:36:32;4.75;;;2.85;;
70725;SDS011;58304;53.104;6.022;2022-09-09T08:39:02;6.75;;;2.80;;
70725;SDS011;58304;53.104;6.022;2022-09-09T08:44:28;5.43;;;2.80;;
70725;SDS011;58304;53.104;6.022;2022-09-09T08:52:36;4.55;;;2.35;;
70725;SDS011;58304;53.104;6.022;2022-09-09T08:58:24;5.45;;;2.30;;
70725;SDS011;58304;53.104;6.022;2022-09-09T09:09:26;5.43;;;2.25;;
70725;SDS011;58304;53.104;6.022;2022-09-09T09:12:20;8.98;;;1.75;;
70725;SDS011;58304;53.104;6.022;2022-09-09T09:18:14;6.32;;;2.15;;
70725;SDS011;58304;53.104;6.022;2022-09-09T09:39:42;5.88;;;1.70;;
70725;SDS011;58304;53.104;6.022;2022-09-09T09:45:07;4.15;;;1.55;;
70725;SDS011;58304;53.104;6.022;2022-09-09T09:51:08;5.65;;;1.60;;
70725;SDS011;58304;53.104;6.022;2022-09-09T10:24:15;5.55;;;1.50;;
70725;SDS011;58304;53.104;6.022;2022-09-09T10:27:18;7.35;;;1.60;;
70725;SDS011;58304;53.104;6.022;2022-09-09T10:36:08;5.85;;;1.35;;
70725;SDS011;58304;53.104;6.022;2022-09-09T10:42:11;5.32;;;1.52;;
70725;SDS011;58304;53.104;6.022;2022-09-09T10:47:34;4.35;;;1.55;;
70725;SDS011;58304;53.104;6.022;2022-09-09T10:53:32;5.28;;;1.20;;
70725;SDS011;58304;53.104;6.022;2022-09-09T10:56:15;4.60;;;1.10;;
70725;SDS011;58304;53.104;6.022;2022-09-09T10:58:46;6.45;;;1.20;;
70725;SDS011;58304;53.104;6.022;2022-09-09T11:01:22;7.88;;;1.27;;
70725;SDS011;58304;53.104;6.022;2022-09-09T11:03:57;6.23;;;1.20;;
70725;SDS011;58304;53.104;6.022;2022-09-09T11:06:37;6.13;;;1.33;;
70725;SDS011;58304;53.104;6.022;2022-09-09T11:09:08;5.53;;;1.00;;
70725;SDS011;58304;53.104;6.022;2022-09-09T11:11:44;3.30;;;1.25;;
70725;SDS011;58304;53.104;6.022;2022-09-09T11:17:06;6.35;;;1.45;;
70725;SDS011;58304;53.104;6.022;2022-09-09T11:19:41;4.45;;;1.30;;
70725;SDS011;58304;53.104;6.022;2022-09-09T11:39:21;5.68;;;1.27;;
70725;SDS011;58304;53.104;6.022;2022-09-09T11:44:39;3.70;;;1.00;;
70725;SDS011;58304;53.104;6.022;2022-09-09T11:47:19;4.13;;;1.10;;
70725;SDS011;58304;53.104;6.022;2022-09-09T11:49:54;6.13;;;1.30;;
70725;SDS011;58304;53.104;6.022;2022-09-09T11:52:40;5.18;;;1.30;;
70725;SDS011;58304;53.104;6.022;2022-09-09T11:58:05;6.50;;;1.17;;
70725;SDS011;58304;53.104;6.022;2022-09-09T12:00:35;6.68;;;1.30;;
70725;SDS011;58304;53.104;6.022;2022-09-09T12:03:03;7.68;;;1.92;;
70725;SDS011;58304;53.104;6.022;2022-09-09T12:05:37;7.22;;;1.45;;
70725;SDS011;58304;53.104;6.022;2022-09-09T12:08:09;7.13;;;1.35;;
70725;SDS011;58304;53.104;6.022;2022-09-09T12:10:54;5.22;;;1.40;;
70725;SDS011;58304;53.104;6.022;2022-09-09T12:13:23;5.70;;;1.40;;
70725;SDS011;58304;53.104;6.022;2022-09-09T12:15:59;6.03;;;1.50;;
70725;SDS011;58304;53.104;6.022;2022-09-09T12:18:37;5.60;;;1.38;;
70725;SDS011;58304;53.104;6.022;2022-09-09T12:21:30;4.60;;;1.70;;
70725;SDS011;58304;53.104;6.022;2022-09-09T12:24:23;4.45;;;1.38;;
70725;SDS011;58304;53.104;6.022;2022-09-09T12:30:07;9.32;;;1.80;;
70725;SDS011;58304;53.104;6.022;2022-09-09T12:32:40;7.25;;;1.80;;
70725;SDS011;58304;53.104;6.022;2022-09-09T12:38:22;6.78;;;1.60;;
70725;SDS011;58304;53.104;6.022;2022-09-09T12:41:04;5.00;;;1.55;;
70725;SDS011;58304;53.104;6.022;2022-09-09T12:43:31;5.40;;;1.20;;
70725;SDS011;58304;53.104;6.022;2022-09-09T12:46:01;5.75;;;1.50;;
70725;SDS011;58304;53.104;6.022;2022-09-09T12:48:40;3.90;;;1.20;;
70725;SDS011;58304;53.104;6.022;2022-09-09T12:51:21;5.57;;;1.40;;
70725;SDS011;58304;53.104;6.022;2022-09-09T12:53:54;6.25;;;1.17;;
70725;SDS011;58304;53.104;6.022;2022-09-09T12:56:44;5.18;;;1.58;;
70725;SDS011;58304;53.104;6.022;2022-09-09T12:59:23;4.93;;;1.20;;
70725;SDS011;58304;53.104;6.022;2022-09-09T13:02:00;5.43;;;1.30;;
70725;SDS011;58304;53.104;6.022;2022-09-09T13:04:26;7.03;;;1.00;;
70725;SDS011;58304;53.104;6.022;2022-09-09T13:06:54;4.60;;;1.30;;
70725;SDS011;58304;53.104;6.022;2022-09-09T13:09:32;4.45;;;1.33;;
70725;SDS011;58304;53.104;6.022;2022-09-09T13:11:57;5.45;;;1.50;;
70725;SDS011;58304;53.104;6.022;2022-09-09T13:14:30;4.45;;;1.30;;
70725;SDS011;58304;53.104;6.022;2022-09-09T13:17:04;5.63;;;1.40;;
70725;SDS011;58304;53.104;6.022;2022-09-09T13:19:38;4.15;;;1.30;;
70725;SDS011;58304;53.104;6.022;2022-09-09T13:22:33;5.00;;;1.15;;
70725;SDS011;58304;53.104;6.022;2022-09-09T13:25:17;8.55;;;1.50;;
70725;SDS011;58304;53.104;6.022;2022-09-09T13:27:56;5.80;;;1.33;;
70725;SDS011;58304;53.104;6.022;2022-09-09T13:30:35;5.82;;;1.48;;
70725;SDS011;58304;53.104;6.022;2022-09-09T13:33:06;3.95;;;1.35;;
70725;SDS011;58304;53.104;6.022;2022-09-09T13:36:01;4.18;;;1.35;;
70725;SDS011;58304;53.104;6.022;2022-09-09T13:38:55;5.82;;;1.30;;
70725;SDS011;58304;53.104;6.022;2022-09-09T13:41:36;4.38;;;1.15;;
70725;SDS011;58304;53.104;6.022;2022-09-09T13:44:24;3.85;;;0.93;;
70725;SDS011;58304;53.104;6.022;2022-09-09T13:47:03;4.20;;;1.15;;
70725;SDS011;58304;53.104;6.022;2022-09-09T13:49:45;4.53;;;0.88;;
70725;SDS011;58304;53.104;6.022;2022-09-09T13:52:13;4.82;;;1.30;;
70725;SDS011;58304;53.104;6.022;2022-09-09T13:54:51;4.72;;;1.45;;
70725;SDS011;58304;53.104;6.022;2022-09-09T13:57:21;3.70;;;1.10;;
70725;SDS011;58304;53.104;6.022;2022-09-09T13:59:50;3.70;;;0.80;;
70725;SDS011;58304;53.104;6.022;2022-09-09T14:02:17;2.63;;;0.95;;
70725;SDS011;58304;53.104;6.022;2022-09-09T14:04:49;2.92;;;0.90;;
70725;SDS011;58304;53.104;6.022;2022-09-09T14:07:20;4.88;;;1.02;;
70725;SDS011;58304;53.104;6.022;2022-09-09T14:09:48;3.45;;;1.02;;
70725;SDS011;58304;53.104;6.022;2022-09-09T14:12:17;3.28;;;1.00;;
70725;SDS011;58304;53.104;6.022;2022-09-09T14:14:46;3.40;;;0.80;;
70725;SDS011;58304;53.104;6.022;2022-09-09T14:17:11;3.50;;;1.00;;
70725;SDS011;58304;53.104;6.022;2022-09-09T14:19:38;3.67;;;0.90;;
70725;SDS011;58304;53.104;6.022;2022-09-09T14:22:04;1.88;;;0.70;;
70725;SDS011;58304;53.104;6.022;2022-09-09T14:24:29;4.50;;;1.27;;
70725;SDS011;58304;53.104;6.022;2022-09-09T14:26:55;1.77;;;0.70;;
70725;SDS011;58304;53.104;6.022;2022-09-09T14:29:21;2.80;;;1.02;;
70725;SDS011;58304;53.104;6.022;2022-09-09T14:31:47;2.28;;;0.88;;
70725;SDS011;58304;53.104;6.022;2022-09-09T14:34:12;2.28;;;0.88;;
70725;SDS011;58304;53.104;6.022;2022-09-09T14:36:41;2.90;;;0.98;;
70725;SDS011;58304;53.104;6.022;2022-09-09T14:39:07;5.50;;;1.30;;
70725;SDS011;58304;53.104;6.022;2022-09-09T14:41:32;3.30;;;1.20;;
70725;SDS011;58304;53.104;6.022;2022-09-09T14:43:58;4.97;;;1.10;;
70725;SDS011;58304;53.104;6.022;2022-09-09T14:46:25;4.65;;;1.38;;
70725;SDS011;58304;53.104;6.022;2022-09-09T14:48:51;2.65;;;1.00;;
70725;SDS011;58304;53.104;6.022;2022-09-09T14:51:18;5.20;;;0.90;;
70725;SDS011;58304;53.104;6.022;2022-09-09T14:53:47;2.92;;;0.82;;
70725;SDS011;58304;53.104;6.022;2022-09-09T14:56:16;3.38;;;1.02;;
70725;SDS011;58304;53.104;6.022;2022-09-09T14:58:43;3.00;;;0.82;;
70725;SDS011;58304;53.104;6.022;2022-09-09T15:01:13;2.47;;;0.88;;
70725;SDS011;58304;53.104;6.022;2022-09-09T15:03:41;3.65;;;0.80;;
70725;SDS011;58304;53.104;6.022;2022-09-09T15:06:09;2.78;;;1.02;;
70725;SDS011;58304;53.104;6.022;2022-09-09T15:08:36;3.90;;;1.27;;
70725;SDS011;58304;53.104;6.022;2022-09-09T15:11:04;2.60;;;0.90;;
70725;SDS011;58304;53.104;6.022;2022-09-09T15:13:32;2.83;;;0.90;;
70725;SDS011;58304;53.104;6.022;2022-09-09T15:18:35;3.42;;;0.95;;
70725;SDS011;58304;53.104;6.022;2022-09-09T15:21:07;2.95;;;1.02;;
70725;SDS011;58304;53.104;6.022;2022-09-09T15:23:34;4.60;;;1.20;;
70725;SDS011;58304;53.104;6.022;2022-09-09T15:26:00;3.25;;;1.20;;
70725;SDS011;58304;53.104;6.022;2022-09-09T15:28:26;5.03;;;1.10;;
70725;SDS011;58304;53.104;6.022;2022-09-09T15:30:52;6.10;;;1.58;;
70725;SDS011;58304;53.104;6.022;2022-09-09T15:33:19;4.70;;;1.63;;
70725;SDS011;58304;53.104;6.022;2022-09-09T15:35:49;4.93;;;1.40;;
70725;SDS011;58304;53.104;6.022;2022-09-09T15:38:16;3.80;;;1.48;;
70725;SDS011;58304;53.104;6.022;2022-09-09T15:40:42;5.00;;;1.58;;
70725;SDS011;58304;53.104;6.022;2022-09-09T15:43:08;2.95;;;1.42;;
70725;SDS011;58304;53.104;6.022;2022-09-09T15:45:35;3.75;;;1.40;;
70725;SDS011;58304;53.104;6.022;2022-09-09T15:48:03;2.97;;;1.38;;
70725;SDS011;58304;53.104;6.022;2022-09-09T15:50:29;3.92;;;1.50;;
70725;SDS011;58304;53.104;6.022;2022-09-09T15:52:58;4.00;;;1.60;;
70725;SDS011;58304;53.104;6.022;2022-09-09T15:55:24;5.03;;;1.40;;
70725;SDS011;58304;53.104;6.022;2022-09-09T15:57:50;4.43;;;1.45;;
70725;SDS011;58304;53.104;6.022;2022-09-09T16:00:17;3.42;;;1.40;;
70725;SDS011;58304;53.104;6.022;2022-09-09T16:02:46;3.03;;;1.40;;
70725;SDS011;58304;53.104;6.022;2022-09-09T16:05:12;3.90;;;1.48;;
70725;SDS011;58304;53.104;6.022;2022-09-09T16:07:37;3.35;;;1.35;;
70725;SDS011;58304;53.104;6.022;2022-09-09T16:10:04;2.83;;;1.50;;
70725;SDS011;58304;53.104;6.022;2022-09-09T16:12:30;3.50;;;1.23;;
70725;SDS011;58304;53.104;6.022;2022-09-09T16:14:56;4.05;;;1.40;;
70725;SDS011;58304;53.104;6.022;2022-09-09T16:17:22;3.92;;;1.40;;
70725;SDS011;58304;53.104;6.022;2022-09-09T16:19:48;3.55;;;1.23;;
70725;SDS011;58304;53.104;6.022;2022-09-09T16:22:13;4.30;;;1.45;;
70725;SDS011;58304;53.104;6.022;2022-09-09T16:24:40;4.55;;;1.50;;
70725;SDS011;58304;53.104;6.022;2022-09-09T16:27:06;3.28;;;1.40;;
70725;SDS011;58304;53.104;6.022;2022-09-09T16:29:31;3.65;;;1.50;;
70725;SDS011;58304;53.104;6.022;2022-09-09T16:31:57;4.55;;;1.40;;
70725;SDS011;58304;53.104;6.022;2022-09-09T16:34:25;4.90;;;1.50;;
70725;SDS011;58304;53.104;6.022;2022-09-09T16:36:50;3.40;;;1.45;;
70725;SDS011;58304;53.104;6.022;2022-09-09T16:39:19;9.73;;;1.60;;
70725;SDS011;58304;53.104;6.022;2022-09-09T16:41:46;4.72;;;1.73;;
70725;SDS011;58304;53.104;6.022;2022-09-09T16:44:13;6.50;;;1.70;;
70725;SDS011;58304;53.104;6.022;2022-09-09T16:46:42;3.75;;;1.67;;
70725;SDS011;58304;53.104;6.022;2022-09-09T16:49:10;6.30;;;1.67;;
70725;SDS011;58304;53.104;6.022;2022-09-09T16:51:44;2.85;;;1.42;;
70725;SDS011;58304;53.104;6.022;2022-09-09T16:54:12;3.30;;;1.67;;
70725;SDS011;58304;53.104;6.022;2022-09-09T16:56:40;3.95;;;1.77;;
70725;SDS011;58304;53.104;6.022;2022-09-09T16:59:17;5.38;;;1.77;;
70725;SDS011;58304;53.104;6.022;2022-09-09T17:01:45;4.82;;;1.80;;
70725;SDS011;58304;53.104;6.022;2022-09-09T17:04:15;3.95;;;1.83;;
70725;SDS011;58304;53.104;6.022;2022-09-09T17:06:46;5.53;;;1.70;;
70725;SDS011;58304;53.104;6.022;2022-09-09T17:09:14;4.00;;;1.63;;
70725;SDS011;58304;53.104;6.022;2022-09-09T17:11:40;5.63;;;1.90;;
70725;SDS011;58304;53.104;6.022;2022-09-09T17:14:07;4.20;;;1.85;;
70725;SDS011;58304;53.104;6.022;2022-09-09T17:16:36;5.18;;;2.00;;
70725;SDS011;58304;53.104;6.022;2022-09-09T17:19:04;4.78;;;1.92;;
70725;SDS011;58304;53.104;6.022;2022-09-09T17:21:30;3.83;;;1.55;;
70725;SDS011;58304;53.104;6.022;2022-09-09T17:23:57;4.45;;;1.92;;
70725;SDS011;58304;53.104;6.022;2022-09-09T17:26:24;4.38;;;1.90;;
70725;SDS011;58304;53.104;6.022;2022-09-09T17:28:52;3.85;;;1.80;;
70725;SDS011;58304;53.104;6.022;2022-09-09T17:31:19;4.32;;;1.70;;
70725;SDS011;58304;53.104;6.022;2022-09-09T17:33:46;4.50;;;1.70;;
70725;SDS011;58304;53.104;6.022;2022-09-09T17:36:14;3.92;;;1.77;;
70725;SDS011;58304;53.104;6.022;2022-09-09T17:38:44;4.15;;;1.80;;
70725;SDS011;58304;53.104;6.022;2022-09-09T17:41:17;3.70;;;1.75;;
70725;SDS011;58304;53.104;6.022;2022-09-09T17:43:49;4.78;;;1.88;;
70725;SDS011;58304;53.104;6.022;2022-09-09T17:46:16;4.28;;;1.90;;
70725;SDS011;58304;53.104;6.022;2022-09-09T17:48:45;5.15;;;1.92;;
70725;SDS011;58304;53.104;6.022;2022-09-09T17:51:11;6.97;;;1.98;;
70725;SDS011;58304;53.104;6.022;2022-09-09T17:53:40;5.00;;;1.92;;
70725;SDS011;58304;53.104;6.022;2022-09-09T17:56:08;4.88;;;1.80;;
70725;SDS011;58304;53.104;6.022;2022-09-09T17:58:36;4.47;;;2.03;;
70725;SDS011;58304;53.104;6.022;2022-09-09T18:01:12;5.35;;;2.30;;
70725;SDS011;58304;53.104;6.022;2022-09-09T18:03:40;4.55;;;1.92;;
70725;SDS011;58304;53.104;6.022;2022-09-09T18:06:08;4.68;;;1.83;;
70725;SDS011;58304;53.104;6.022;2022-09-09T18:08:35;4.15;;;2.00;;
70725;SDS011;58304;53.104;6.022;2022-09-09T18:11:01;4.20;;;1.98;;
70725;SDS011;58304;53.104;6.022;2022-09-09T18:13:28;5.35;;;2.15;;
70725;SDS011;58304;53.104;6.022;2022-09-09T18:15:54;7.03;;;2.53;;
70725;SDS011;58304;53.104;6.022;2022-09-09T18:18:22;6.43;;;2.60;;
70725;SDS011;58304;53.104;6.022;2022-09-09T18:23:35;5.65;;;2.53;;
70725;SDS011;58304;53.104;6.022;2022-09-09T18:26:10;5.78;;;2.40;;